CFDAA CSX7-CYXU
Flight info
| Callsign | CFDAA |
|---|---|
| Flight time | N/A |
| Altitude | 4000 |
| Route | BOSEP DCT CYZR/N0193F050 DCT HAVOK DCT CYXU DCT TETOS DCT CYKF/N0191F040 SIGTU·RNAV/15 |
| Aircraft | BE58/L-SBGRZ/EB2 |
Departure
| Time | 2026-04-25 01:05 |
|---|---|
| Airport | Sexsmith (Exeter) Airport (CSX7) |
Arrival
| Time | N/A |
|---|---|
| Airport | London International Airport (CYXU) |
| Time | Latitude | Longitude | Altitude | Speed | Heading |
|---|---|---|---|---|---|
| 2026-04-25 00:58 | 42.99740 | -82.15493 | 5011 ft | 222 kts | 87° |
| 2026-04-25 00:58 | 43.00183 | -82.13500 | 5000 ft | 221 kts | 57° |
| 2026-04-25 00:58 | 43.01050 | -82.11771 | 5006 ft | 221 kts | 52° |
| 2026-04-25 00:58 | 43.01943 | -82.10065 | 5007 ft | 221 kts | 52° |
| 2026-04-25 00:59 | 43.02840 | -82.08364 | 5010 ft | 220 kts | 52° |
| 2026-04-25 00:59 | 43.03732 | -82.06660 | 5012 ft | 221 kts | 52° |
| 2026-04-25 00:59 | 43.04501 | -82.04854 | 5016 ft | 222 kts | 73° |
| 2026-04-25 00:59 | 43.04502 | -82.02772 | 5022 ft | 220 kts | 105° |
| 2026-04-25 01:00 | 43.04191 | -82.00722 | 5019 ft | 221 kts | 100° |
| 2026-04-25 01:00 | 43.04051 | -81.98629 | 5013 ft | 222 kts | 95° |
| 2026-04-25 01:00 | 43.03970 | -81.96521 | 5021 ft | 222 kts | 95° |
| 2026-04-25 01:00 | 43.03876 | -81.94414 | 5021 ft | 222 kts | 96° |
| 2026-04-25 01:01 | 43.03772 | -81.92307 | 5021 ft | 222 kts | 96° |
| 2026-04-25 01:01 | 43.03648 | -81.90212 | 5027 ft | 221 kts | 96° |
| 2026-04-25 01:01 | 43.03539 | -81.88113 | 5028 ft | 221 kts | 96° |
| 2026-04-25 01:01 | 43.03447 | -81.86012 | 5031 ft | 221 kts | 88° |
| 2026-04-25 01:02 | 43.03388 | -81.83910 | 5030 ft | 222 kts | 96° |
| 2026-04-25 01:02 | 43.03225 | -81.81809 | 5031 ft | 222 kts | 97° |
| 2026-04-25 01:02 | 43.03111 | -81.79703 | 5031 ft | 222 kts | 94° |
| 2026-04-25 01:02 | 43.03030 | -81.77599 | 5035 ft | 222 kts | 95° |
| 2026-04-25 01:03 | 43.02932 | -81.75495 | 5035 ft | 222 kts | 96° |
| 2026-04-25 01:03 | 43.02825 | -81.73388 | 5032 ft | 223 kts | 95° |
| 2026-04-25 01:03 | 43.02748 | -81.71306 | 5033 ft | 222 kts | 95° |
| 2026-04-25 01:03 | 43.02623 | -81.69251 | 4971 ft | 206 kts | 97° |
| 2026-04-25 01:04 | 43.02510 | -81.67378 | 4828 ft | 192 kts | 96° |
| 2026-04-25 01:04 | 43.02426 | -81.65597 | 4688 ft | 185 kts | 95° |
| 2026-04-25 01:04 | 43.02340 | -81.63836 | 4548 ft | 182 kts | 96° |
| 2026-04-25 01:04 | 43.02253 | -81.62146 | 4411 ft | 180 kts | 96° |
| 2026-04-25 01:05 | 43.02165 | -81.60438 | 4285 ft | 180 kts | 97° |
| 2026-04-25 01:05 | 43.02077 | -81.58737 | 4157 ft | 179 kts | 96° |
| 2026-04-25 01:05 | 43.01989 | -81.57043 | 4025 ft | 179 kts | 96° |
| 2026-04-25 01:05 | 43.01936 | -81.55360 | 3908 ft | 177 kts | 95° |
| 2026-04-25 01:06 | 43.01846 | -81.53686 | 3787 ft | 177 kts | 97° |
| 2026-04-25 01:06 | 43.01737 | -81.52011 | 3665 ft | 177 kts | 96° |
| 2026-04-25 01:06 | 43.01644 | -81.50309 | 3541 ft | 177 kts | 96° |
| 2026-04-25 01:06 | 43.01579 | -81.48656 | 3421 ft | 176 kts | 90° |
| 2026-04-25 01:07 | 43.01689 | -81.46968 | 3299 ft | 176 kts | 85° |
| 2026-04-25 01:07 | 43.01808 | -81.45305 | 3179 ft | 176 kts | 85° |
| 2026-04-25 01:07 | 43.01916 | -81.43654 | 3056 ft | 177 kts | 86° |
| 2026-04-25 01:07 | 43.02028 | -81.42011 | 3035 ft | 170 kts | 87° |
| 2026-04-25 01:08 | 43.02124 | -81.40406 | 3034 ft | 169 kts | 86° |
| 2026-04-25 01:08 | 43.02229 | -81.38819 | 3028 ft | 166 kts | 87° |
| 2026-04-25 01:08 | 43.02330 | -81.37255 | 3025 ft | 165 kts | 87° |
| 2026-04-25 01:08 | 43.02434 | -81.35688 | 3022 ft | 165 kts | 86° |
| 2026-04-25 01:09 | 43.02540 | -81.34113 | 2970 ft | 168 kts | 87° |
| 2026-04-25 01:09 | 43.02639 | -81.32602 | 2821 ft | 146 kts | 88° |
| 2026-04-25 01:09 | 43.02726 | -81.31303 | 2662 ft | 132 kts | 91° |
| 2026-04-25 01:09 | 43.02810 | -81.30058 | 2525 ft | 132 kts | 89° |
| 2026-04-25 01:10 | 43.02892 | -81.28816 | 2392 ft | 130 kts | 91° |
| 2026-04-25 01:10 | 43.02971 | -81.27608 | 2349 ft | 125 kts | 93° |
| 2026-04-25 01:10 | 43.03064 | -81.26457 | 2342 ft | 121 kts | 86° |
| 2026-04-25 01:10 | 43.03165 | -81.25219 | 2297 ft | 136 kts | 91° |
| 2026-04-25 01:11 | 43.03237 | -81.23931 | 2235 ft | 137 kts | 90° |
| 2026-04-25 01:11 | 43.03300 | -81.22653 | 2084 ft | 129 kts | 92° |
| 2026-04-25 01:11 | 43.03338 | -81.21502 | 1933 ft | 121 kts | 92° |
| 2026-04-25 01:11 | 43.03358 | -81.20732 | 1790 ft | 122 kts | 88° |
| 2026-04-25 01:12 | 43.03424 | -81.19625 | 1535 ft | 107 kts | 87° |
| 2026-04-25 01:12 | 43.03496 | -81.18673 | 1313 ft | 105 kts | 84° |
| 2026-04-25 01:12 | 43.03603 | -81.17564 | 1514 ft | 122 kts | 88° |
| 2026-04-25 01:12 | 43.03663 | -81.16481 | 2158 ft | 124 kts | 88° |
| 2026-04-25 01:13 | 43.03781 | -81.15170 | 2628 ft | 145 kts | 85° |
| 2026-04-25 01:13 | 43.03934 | -81.13779 | 3180 ft | 154 kts | 86° |
| 2026-04-25 01:13 | 43.03999 | -81.12297 | 3766 ft | 157 kts | 85° |
| 2026-04-25 01:13 | 43.04084 | -81.10783 | 4235 ft | 171 kts | 79° |
| 2026-04-25 01:14 | 43.04680 | -81.09323 | 4148 ft | 177 kts | 36° |
| 2026-04-25 01:14 | 43.05713 | -81.08426 | 4058 ft | 182 kts | 30° |
| 2026-04-25 01:14 | 43.06642 | -81.07180 | 4054 ft | 191 kts | 48° |
| 2026-04-25 01:14 | 43.07462 | -81.05730 | 4054 ft | 194 kts | 49° |
| 2026-04-25 01:15 | 43.08295 | -81.04286 | 4059 ft | 194 kts | 48° |
| 2026-04-25 01:15 | 43.09142 | -81.02849 | 4057 ft | 195 kts | 48° |
| 2026-04-25 01:15 | 43.09990 | -81.01407 | 4058 ft | 194 kts | 48° |
| 2026-04-25 01:15 | 43.10833 | -80.99968 | 4054 ft | 194 kts | 49° |
| 2026-04-25 01:16 | 43.11676 | -80.98529 | 4059 ft | 194 kts | 48° |
| 2026-04-25 01:16 | 43.12517 | -80.97093 | 4057 ft | 193 kts | 49° |
| 2026-04-25 01:16 | 43.13352 | -80.95664 | 4056 ft | 192 kts | 48° |
| 2026-04-25 01:16 | 43.14188 | -80.94232 | 4059 ft | 192 kts | 49° |
| 2026-04-25 01:17 | 43.15021 | -80.92802 | 4056 ft | 192 kts | 49° |
| 2026-04-25 01:17 | 43.15858 | -80.91374 | 4062 ft | 192 kts | 49° |
| 2026-04-25 01:17 | 43.16694 | -80.89946 | 4061 ft | 192 kts | 49° |
| 2026-04-25 01:17 | 43.17532 | -80.88512 | 4066 ft | 193 kts | 49° |
| 2026-04-25 01:18 | 43.18370 | -80.87077 | 4063 ft | 193 kts | 49° |
| 2026-04-25 01:18 | 43.19207 | -80.85638 | 4070 ft | 193 kts | 49° |
| 2026-04-25 01:18 | 43.20049 | -80.84199 | 4068 ft | 194 kts | 49° |
| 2026-04-25 01:18 | 43.20890 | -80.82754 | 4071 ft | 194 kts | 49° |
| 2026-04-25 01:19 | 43.21730 | -80.81311 | 4075 ft | 193 kts | 49° |
| 2026-04-25 01:19 | 43.22570 | -80.79871 | 4075 ft | 193 kts | 49° |
| 2026-04-25 01:19 | 43.23405 | -80.78435 | 4076 ft | 193 kts | 49° |
| 2026-04-25 01:19 | 43.24242 | -80.76998 | 4079 ft | 193 kts | 49° |
| 2026-04-25 01:20 | 43.25112 | -80.75629 | 4080 ft | 190 kts | 41° |